sensor_id;sensor_type;location;lat;lon;timestamp;temperature;humidity
15717;DHT22;7960;50.908;4.204;2023-05-16T00:01:34;9.90;99.90
15717;DHT22;7960;50.908;4.204;2023-05-16T00:04:02;9.80;99.90
15717;DHT22;7960;50.908;4.204;2023-05-16T00:06:29;9.80;99.90
15717;DHT22;7960;50.908;4.204;2023-05-16T00:08:58;9.80;99.90
15717;DHT22;7960;50.908;4.204;2023-05-16T00:11:25;9.80;99.90
15717;DHT22;7960;50.908;4.204;2023-05-16T00:13:53;9.80;99.90
15717;DHT22;7960;50.908;4.204;2023-05-16T00:16:20;9.80;99.90
15717;DHT22;7960;50.908;4.204;2023-05-16T00:18:47;9.80;99.90
15717;DHT22;7960;50.908;4.204;2023-05-16T00:21:14;9.80;99.90
15717;DHT22;7960;50.908;4.204;2023-05-16T00:23:41;9.70;99.90
15717;DHT22;7960;50.908;4.204;2023-05-16T00:26:10;9.80;99.90
15717;DHT22;7960;50.908;4.204;2023-05-16T00:28:37;9.70;99.90
15717;DHT22;7960;50.908;4.204;2023-05-16T00:31:04;9.60;99.90
15717;DHT22;7960;50.908;4.204;2023-05-16T00:33:31;9.60;99.90
15717;DHT22;7960;50.908;4.204;2023-05-16T00:35:58;9.50;99.90
15717;DHT22;7960;50.908;4.204;2023-05-16T00:38:25;9.50;99.90
15717;DHT22;7960;50.908;4.204;2023-05-16T00:40:52;9.50;99.90
15717;DHT22;7960;50.908;4.204;2023-05-16T00:43:20;9.30;99.90
15717;DHT22;7960;50.908;4.204;2023-05-16T00:45:47;9.40;99.90
15717;DHT22;7960;50.908;4.204;2023-05-16T00:48:14;9.40;99.90
15717;DHT22;7960;50.908;4.204;2023-05-16T00:50:41;9.40;99.90
15717;DHT22;7960;50.908;4.204;2023-05-16T00:53:08;9.40;99.90
15717;DHT22;7960;50.908;4.204;2023-05-16T00:55:36;9.40;99.90
15717;DHT22;7960;50.908;4.204;2023-05-16T00:58:04;9.30;99.90
15717;DHT22;7960;50.908;4.204;2023-05-16T01:00:32;9.30;99.90
15717;DHT22;7960;50.908;4.204;2023-05-16T01:03:00;9.30;99.90
15717;DHT22;7960;50.908;4.204;2023-05-16T01:05:27;9.20;99.90
15717;DHT22;7960;50.908;4.204;2023-05-16T01:07:54;9.20;99.90
15717;DHT22;7960;50.908;4.204;2023-05-16T01:10:22;9.20;99.90
15717;DHT22;7960;50.908;4.204;2023-05-16T01:12:56;9.30;99.90
15717;DHT22;7960;50.908;4.204;2023-05-16T01:15:29;9.20;99.90
15717;DHT22;7960;50.908;4.204;2023-05-16T01:18:04;9.20;99.90
15717;DHT22;7960;50.908;4.204;2023-05-16T01:20:38;9.20;99.90
15717;DHT22;7960;50.908;4.204;2023-05-16T01:23:29;9.30;99.90
15717;DHT22;7960;50.908;4.204;2023-05-16T01:26:16;9.20;99.90
15717;DHT22;7960;50.908;4.204;2023-05-16T01:28:45;9.10;99.90
15717;DHT22;7960;50.908;4.204;2023-05-16T01:31:12;9.00;99.90
15717;DHT22;7960;50.908;4.204;2023-05-16T01:33:39;9.10;99.90
15717;DHT22;7960;50.908;4.204;2023-05-16T01:36:12;9.10;99.90
15717;DHT22;7960;50.908;4.204;2023-05-16T01:38:44;9.10;99.90
15717;DHT22;7960;50.908;4.204;2023-05-16T01:41:21;9.20;99.90
15717;DHT22;7960;50.908;4.204;2023-05-16T01:43:55;9.10;99.90
15717;DHT22;7960;50.908;4.204;2023-05-16T01:46:26;9.20;99.90
15717;DHT22;7960;50.908;4.204;2023-05-16T01:49:02;9.20;99.90
15717;DHT22;7960;50.908;4.204;2023-05-16T01:51:32;9.10;99.90
15717;DHT22;7960;50.908;4.204;2023-05-16T01:54:05;9.00;99.90
15717;DHT22;7960;50.908;4.204;2023-05-16T01:56:36;9.10;99.90
15717;DHT22;7960;50.908;4.204;2023-05-16T01:59:04;9.10;99.90
15717;DHT22;7960;50.908;4.204;2023-05-16T02:01:31;9.00;99.90
15717;DHT22;7960;50.908;4.204;2023-05-16T02:03:58;9.00;99.90
15717;DHT22;7960;50.908;4.204;2023-05-16T02:06:25;9.00;99.90
15717;DHT22;7960;50.908;4.204;2023-05-16T02:08:52;9.00;99.90
15717;DHT22;7960;50.908;4.204;2023-05-16T02:11:19;9.10;99.90
15717;DHT22;7960;50.908;4.204;2023-05-16T02:13:48;9.10;99.90
15717;DHT22;7960;50.908;4.204;2023-05-16T02:16:15;9.00;99.90
15717;DHT22;7960;50.908;4.204;2023-05-16T02:18:42;9.10;99.90
15717;DHT22;7960;50.908;4.204;2023-05-16T02:21:09;9.00;99.90
15717;DHT22;7960;50.908;4.204;2023-05-16T02:23:36;9.10;99.90
15717;DHT22;7960;50.908;4.204;2023-05-16T02:26:03;9.10;99.90
15717;DHT22;7960;50.908;4.204;2023-05-16T02:28:31;9.10;99.90
15717;DHT22;7960;50.908;4.204;2023-05-16T02:30:59;9.00;99.90
15717;DHT22;7960;50.908;4.204;2023-05-16T02:33:27;9.10;99.90
15717;DHT22;7960;50.908;4.204;2023-05-16T02:35:54;9.00;99.90
15717;DHT22;7960;50.908;4.204;2023-05-16T02:38:21;9.00;99.90
15717;DHT22;7960;50.908;4.204;2023-05-16T02:40:48;9.00;99.90
15717;DHT22;7960;50.908;4.204;2023-05-16T02:43:16;9.10;99.90
15717;DHT22;7960;50.908;4.204;2023-05-16T02:45:43;9.00;99.90
15717;DHT22;7960;50.908;4.204;2023-05-16T02:48:11;9.00;99.90
15717;DHT22;7960;50.908;4.204;2023-05-16T02:50:38;9.00;99.90
15717;DHT22;7960;50.908;4.204;2023-05-16T02:53:05;8.80;99.90
15717;DHT22;7960;50.908;4.204;2023-05-16T02:55:32;8.80;99.90
15717;DHT22;7960;50.908;4.204;2023-05-16T02:57:59;8.90;99.90
15717;DHT22;7960;50.908;4.204;2023-05-16T03:00:26;9.00;99.90
15717;DHT22;7960;50.908;4.204;2023-05-16T03:02:53;9.00;99.90
15717;DHT22;7960;50.908;4.204;2023-05-16T03:05:21;8.90;99.90
15717;DHT22;7960;50.908;4.204;2023-05-16T03:07:48;8.80;99.90
15717;DHT22;7960;50.908;4.204;2023-05-16T03:10:15;8.80;99.90
15717;DHT22;7960;50.908;4.204;2023-05-16T03:12:42;8.80;99.90
15717;DHT22;7960;50.908;4.204;2023-05-16T03:15:10;8.80;99.90
15717;DHT22;7960;50.908;4.204;2023-05-16T03:17:37;8.80;99.90
15717;DHT22;7960;50.908;4.204;2023-05-16T03:20:05;8.70;99.90
15717;DHT22;7960;50.908;4.204;2023-05-16T03:22:35;8.70;99.90
15717;DHT22;7960;50.908;4.204;2023-05-16T03:25:02;8.80;99.90
15717;DHT22;7960;50.908;4.204;2023-05-16T03:27:29;8.80;99.90
15717;DHT22;7960;50.908;4.204;2023-05-16T03:29:56;8.70;99.90
15717;DHT22;7960;50.908;4.204;2023-05-16T03:32:23;8.70;99.90
15717;DHT22;7960;50.908;4.204;2023-05-16T03:34:50;8.70;99.90
15717;DHT22;7960;50.908;4.204;2023-05-16T03:37:17;8.70;99.90
15717;DHT22;7960;50.908;4.204;2023-05-16T03:39:45;8.70;99.90
15717;DHT22;7960;50.908;4.204;2023-05-16T03:42:12;8.70;99.90
15717;DHT22;7960;50.908;4.204;2023-05-16T03:44:39;8.70;99.90
15717;DHT22;7960;50.908;4.204;2023-05-16T03:47:07;8.60;99.90
15717;DHT22;7960;50.908;4.204;2023-05-16T03:49:33;8.60;99.90
15717;DHT22;7960;50.908;4.204;2023-05-16T03:52:01;8.60;99.90
15717;DHT22;7960;50.908;4.204;2023-05-16T03:54:28;8.50;99.90
15717;DHT22;7960;50.908;4.204;2023-05-16T03:56:57;8.60;99.90
15717;DHT22;7960;50.908;4.204;2023-05-16T03:59:24;8.60;99.90
15717;DHT22;7960;50.908;4.204;2023-05-16T04:01:51;8.60;99.90
15717;DHT22;7960;50.908;4.204;2023-05-16T04:04:18;8.50;99.90
15717;DHT22;7960;50.908;4.204;2023-05-16T04:06:45;8.40;99.90
15717;DHT22;7960;50.908;4.204;2023-05-16T04:09:12;8.60;99.90
15717;DHT22;7960;50.908;4.204;2023-05-16T04:11:39;8.60;99.90
15717;DHT22;7960;50.908;4.204;2023-05-16T04:14:07;8.60;99.90
15717;DHT22;7960;50.908;4.204;2023-05-16T04:16:34;8.30;99.90
15717;DHT22;7960;50.908;4.204;2023-05-16T04:19:01;8.50;99.90
15717;DHT22;7960;50.908;4.204;2023-05-16T04:21:28;8.60;99.90
15717;DHT22;7960;50.908;4.204;2023-05-16T04:23:55;8.60;99.90
15717;DHT22;7960;50.908;4.204;2023-05-16T04:26:23;8.60;99.90
15717;DHT22;7960;50.908;4.204;2023-05-16T04:28:52;8.70;99.90
15717;DHT22;7960;50.908;4.204;2023-05-16T04:31:21;8.50;99.90
15717;DHT22;7960;50.908;4.204;2023-05-16T04:33:48;8.60;99.90
15717;DHT22;7960;50.908;4.204;2023-05-16T04:36:15;8.60;99.90
15717;DHT22;7960;50.908;4.204;2023-05-16T04:38:42;8.70;99.90
15717;DHT22;7960;50.908;4.204;2023-05-16T04:41:11;8.70;99.90
15717;DHT22;7960;50.908;4.204;2023-05-16T04:43:38;8.80;99.90
15717;DHT22;7960;50.908;4.204;2023-05-16T04:46:06;8.80;99.90
15717;DHT22;7960;50.908;4.204;2023-05-16T04:48:35;8.90;99.90
15717;DHT22;7960;50.908;4.204;2023-05-16T04:51:03;8.70;99.90
15717;DHT22;7960;50.908;4.204;2023-05-16T04:53:30;8.70;99.90
15717;DHT22;7960;50.908;4.204;2023-05-16T04:55:57;8.70;99.90
15717;DHT22;7960;50.908;4.204;2023-05-16T04:58:24;8.80;99.90
15717;DHT22;7960;50.908;4.204;2023-05-16T05:00:51;8.80;99.90
15717;DHT22;7960;50.908;4.204;2023-05-16T05:03:18;8.80;99.90
15717;DHT22;7960;50.908;4.204;2023-05-16T05:05:47;8.90;99.90
15717;DHT22;7960;50.908;4.204;2023-05-16T05:08:14;8.90;99.90
15717;DHT22;7960;50.908;4.204;2023-05-16T05:10:41;8.90;99.90
15717;DHT22;7960;50.908;4.204;2023-05-16T05:13:09;8.90;99.90
15717;DHT22;7960;50.908;4.204;2023-05-16T05:15:36;8.90;99.90
15717;DHT22;7960;50.908;4.204;2023-05-16T05:18:03;8.80;99.90
15717;DHT22;7960;50.908;4.204;2023-05-16T05:20:30;8.80;99.90
15717;DHT22;7960;50.908;4.204;2023-05-16T05:22:58;8.90;99.90
15717;DHT22;7960;50.908;4.204;2023-05-16T05:25:25;9.00;99.90
15717;DHT22;7960;50.908;4.204;2023-05-16T05:27:52;9.10;99.90
15717;DHT22;7960;50.908;4.204;2023-05-16T05:30:19;9.20;99.90
15717;DHT22;7960;50.908;4.204;2023-05-16T05:32:46;9.00;99.90
15717;DHT22;7960;50.908;4.204;2023-05-16T05:35:13;9.00;99.90
15717;DHT22;7960;50.908;4.204;2023-05-16T05:37:41;9.10;99.90
15717;DHT22;7960;50.908;4.204;2023-05-16T05:40:10;9.10;99.90
15717;DHT22;7960;50.908;4.204;2023-05-16T05:42:37;9.20;99.90
15717;DHT22;7960;50.908;4.204;2023-05-16T05:45:04;9.20;99.90
15717;DHT22;7960;50.908;4.204;2023-05-16T05:47:32;9.30;99.90
15717;DHT22;7960;50.908;4.204;2023-05-16T05:49:59;9.50;99.90
15717;DHT22;7960;50.908;4.204;2023-05-16T05:52:27;9.40;99.90
15717;DHT22;7960;50.908;4.204;2023-05-16T05:54:54;9.50;99.90
15717;DHT22;7960;50.908;4.204;2023-05-16T05:57:22;9.60;99.90
15717;DHT22;7960;50.908;4.204;2023-05-16T05:59:49;9.50;99.90
15717;DHT22;7960;50.908;4.204;2023-05-16T06:02:16;9.60;99.90
15717;DHT22;7960;50.908;4.204;2023-05-16T06:04:43;9.60;99.90
15717;DHT22;7960;50.908;4.204;2023-05-16T06:07:10;9.70;99.90
15717;DHT22;7960;50.908;4.204;2023-05-16T06:09:37;9.70;99.90
15717;DHT22;7960;50.908;4.204;2023-05-16T06:12:04;9.80;99.90
15717;DHT22;7960;50.908;4.204;2023-05-16T06:14:33;10.10;99.90
15717;DHT22;7960;50.908;4.204;2023-05-16T06:17:00;10.10;99.90
15717;DHT22;7960;50.908;4.204;2023-05-16T06:19:27;10.10;99.90
15717;DHT22;7960;50.908;4.204;2023-05-16T06:21:53;10.10;99.90
15717;DHT22;7960;50.908;4.204;2023-05-16T06:24:21;10.10;99.90
15717;DHT22;7960;50.908;4.204;2023-05-16T06:26:48;10.00;99.90
15717;DHT22;7960;50.908;4.204;2023-05-16T06:29:15;10.00;99.90
15717;DHT22;7960;50.908;4.204;2023-05-16T06:31:44;10.20;99.90
15717;DHT22;7960;50.908;4.204;2023-05-16T06:34:11;10.30;99.90
15717;DHT22;7960;50.908;4.204;2023-05-16T06:36:38;10.50;99.90
15717;DHT22;7960;50.908;4.204;2023-05-16T06:39:05;10.50;99.90
15717;DHT22;7960;50.908;4.204;2023-05-16T06:41:32;10.60;99.90
15717;DHT22;7960;50.908;4.204;2023-05-16T06:43:59;10.60;99.90
15717;DHT22;7960;50.908;4.204;2023-05-16T06:46:26;10.80;99.90
15717;DHT22;7960;50.908;4.204;2023-05-16T06:48:54;10.80;99.90
15717;DHT22;7960;50.908;4.204;2023-05-16T06:51:21;10.90;99.90
15717;DHT22;7960;50.908;4.204;2023-05-16T06:53:48;11.00;99.90
15717;DHT22;7960;50.908;4.204;2023-05-16T06:56:15;10.90;99.90
15717;DHT22;7960;50.908;4.204;2023-05-16T06:58:42;11.00;99.90
15717;DHT22;7960;50.908;4.204;2023-05-16T07:01:09;11.00;99.90
15717;DHT22;7960;50.908;4.204;2023-05-16T07:03:36;11.10;99.90
15717;DHT22;7960;50.908;4.204;2023-05-16T07:06:04;11.10;99.90
15717;DHT22;7960;50.908;4.204;2023-05-16T07:08:31;11.10;99.90
15717;DHT22;7960;50.908;4.204;2023-05-16T07:11:00;11.20;99.90
15717;DHT22;7960;50.908;4.204;2023-05-16T07:13:27;11.40;99.90
15717;DHT22;7960;50.908;4.204;2023-05-16T07:15:54;11.60;99.90
15717;DHT22;7960;50.908;4.204;2023-05-16T07:18:21;11.90;99.90
15717;DHT22;7960;50.908;4.204;2023-05-16T07:20:48;12.10;99.90
15717;DHT22;7960;50.908;4.204;2023-05-16T07:23:16;12.20;99.90
15717;DHT22;7960;50.908;4.204;2023-05-16T07:25:43;12.10;99.90
15717;DHT22;7960;50.908;4.204;2023-05-16T07:28:10;12.00;99.90
15717;DHT22;7960;50.908;4.204;2023-05-16T07:30:37;11.90;99.90
15717;DHT22;7960;50.908;4.204;2023-05-16T07:33:04;11.80;99.90
15717;DHT22;7960;50.908;4.204;2023-05-16T07:35:31;11.90;99.90
15717;DHT22;7960;50.908;4.204;2023-05-16T07:37:58;11.80;99.90
15717;DHT22;7960;50.908;4.204;2023-05-16T07:40:27;11.80;99.90
15717;DHT22;7960;50.908;4.204;2023-05-16T07:42:54;11.60;99.90
15717;DHT22;7960;50.908;4.204;2023-05-16T07:45:21;11.50;99.90
15717;DHT22;7960;50.908;4.204;2023-05-16T07:47:48;11.50;99.90
15717;DHT22;7960;50.908;4.204;2023-05-16T07:50:15;11.40;99.90
15717;DHT22;7960;50.908;4.204;2023-05-16T07:52:42;11.50;99.90
15717;DHT22;7960;50.908;4.204;2023-05-16T07:55:09;11.40;99.90
15717;DHT22;7960;50.908;4.204;2023-05-16T07:57:37;11.50;99.90
15717;DHT22;7960;50.908;4.204;2023-05-16T08:00:06;11.40;99.90
15717;DHT22;7960;50.908;4.204;2023-05-16T08:02:34;11.50;99.90
15717;DHT22;7960;50.908;4.204;2023-05-16T08:05:01;11.70;99.90
15717;DHT22;7960;50.908;4.204;2023-05-16T08:07:28;11.80;99.90
15717;DHT22;7960;50.908;4.204;2023-05-16T08:09:55;12.00;99.90
15717;DHT22;7960;50.908;4.204;2023-05-16T08:12:23;12.10;99.90
15717;DHT22;7960;50.908;4.204;2023-05-16T08:14:52;12.30;99.90
15717;DHT22;7960;50.908;4.204;2023-05-16T08:17:20;12.40;99.90
15717;DHT22;7960;50.908;4.204;2023-05-16T08:19:47;12.50;99.90
15717;DHT22;7960;50.908;4.204;2023-05-16T08:22:14;12.50;99.90
15717;DHT22;7960;50.908;4.204;2023-05-16T08:24:41;12.70;99.90
15717;DHT22;7960;50.908;4.204;2023-05-16T08:27:08;12.80;99.90
15717;DHT22;7960;50.908;4.204;2023-05-16T08:29:35;12.90;99.90
15717;DHT22;7960;50.908;4.204;2023-05-16T08:32:05;13.10;99.90
15717;DHT22;7960;50.908;4.204;2023-05-16T08:34:32;13.20;99.80
15717;DHT22;7960;50.908;4.204;2023-05-16T08:36:59;13.10;99.80
15717;DHT22;7960;50.908;4.204;2023-05-16T08:39:26;13.10;99.90
15717;DHT22;7960;50.908;4.204;2023-05-16T08:41:55;13.20;99.90
15717;DHT22;7960;50.908;4.204;2023-05-16T08:44:23;13.20;99.90
15717;DHT22;7960;50.908;4.204;2023-05-16T08:46:52;13.00;99.90
15717;DHT22;7960;50.908;4.204;2023-05-16T08:49:21;12.90;99.90
15717;DHT22;7960;50.908;4.204;2023-05-16T08:51:51;12.90;99.90
15717;DHT22;7960;50.908;4.204;2023-05-16T08:54:22;12.90;99.90
15717;DHT22;7960;50.908;4.204;2023-05-16T08:56:50;12.90;99.90
15717;DHT22;7960;50.908;4.204;2023-05-16T08:59:17;13.00;99.90
15717;DHT22;7960;50.908;4.204;2023-05-16T09:01:45;13.20;99.90
15717;DHT22;7960;50.908;4.204;2023-05-16T09:04:13;13.30;99.90
15717;DHT22;7960;50.908;4.204;2023-05-16T09:06:41;13.50;98.70
15717;DHT22;7960;50.908;4.204;2023-05-16T09:09:09;13.60;98.10
15717;DHT22;7960;50.908;4.204;2023-05-16T09:11:37;13.60;97.90
15717;DHT22;7960;50.908;4.204;2023-05-16T09:14:04;13.70;97.50
15717;DHT22;7960;50.908;4.204;2023-05-16T09:16:31;13.70;97.00
15717;DHT22;7960;50.908;4.204;2023-05-16T09:19:00;13.80;96.70
15717;DHT22;7960;50.908;4.204;2023-05-16T09:21:29;13.50;97.00
15717;DHT22;7960;50.908;4.204;2023-05-16T09:24:02;13.30;96.20
15717;DHT22;7960;50.908;4.204;2023-05-16T09:26:29;13.20;96.50
15717;DHT22;7960;50.908;4.204;2023-05-16T09:28:57;13.20;96.70
15717;DHT22;7960;50.908;4.204;2023-05-16T09:31:25;13.40;96.00
15717;DHT22;7960;50.908;4.204;2023-05-16T09:33:52;13.70;96.20
15717;DHT22;7960;50.908;4.204;2023-05-16T09:36:19;14.20;96.10
15717;DHT22;7960;50.908;4.204;2023-05-16T09:38:46;14.50;94.70
15717;DHT22;7960;50.908;4.204;2023-05-16T09:41:15;14.70;94.50
15717;DHT22;7960;50.908;4.204;2023-05-16T09:43:43;14.80;93.80
15717;DHT22;7960;50.908;4.204;2023-05-16T09:46:11;14.90;94.40
15717;DHT22;7960;50.908;4.204;2023-05-16T09:48:40;15.00;94.10
15717;DHT22;7960;50.908;4.204;2023-05-16T09:51:08;14.90;93.60
15717;DHT22;7960;50.908;4.204;2023-05-16T09:53:38;14.90;93.50
15717;DHT22;7960;50.908;4.204;2023-05-16T09:56:06;14.70;93.50
15717;DHT22;7960;50.908;4.204;2023-05-16T09:58:36;14.60;93.90
15717;DHT22;7960;50.908;4.204;2023-05-16T10:01:04;14.90;94.20
15717;DHT22;7960;50.908;4.204;2023-05-16T10:03:33;15.40;94.90
15717;DHT22;7960;50.908;4.204;2023-05-16T10:06:01;15.20;94.40
15717;DHT22;7960;50.908;4.204;2023-05-16T10:08:30;15.10;94.50
15717;DHT22;7960;50.908;4.204;2023-05-16T10:11:01;15.00;94.10
15717;DHT22;7960;50.908;4.204;2023-05-16T10:13:29;14.80;93.60
15717;DHT22;7960;50.908;4.204;2023-05-16T10:15:59;15.10;93.60
15717;DHT22;7960;50.908;4.204;2023-05-16T10:18:30;15.50;93.60
15717;DHT22;7960;50.908;4.204;2023-05-16T10:21:03;15.40;91.70
15717;DHT22;7960;50.908;4.204;2023-05-16T10:23:32;15.20;91.20
15717;DHT22;7960;50.908;4.204;2023-05-16T10:26:02;15.40;91.30
15717;DHT22;7960;50.908;4.204;2023-05-16T10:28:29;15.60;90.80
15717;DHT22;7960;50.908;4.204;2023-05-16T10:30:58;15.60;90.50
15717;DHT22;7960;50.908;4.204;2023-05-16T10:33:27;15.80;91.00
15717;DHT22;7960;50.908;4.204;2023-05-16T10:35:54;15.70;90.90
15717;DHT22;7960;50.908;4.204;2023-05-16T10:38:22;15.60;91.70
15717;DHT22;7960;50.908;4.204;2023-05-16T10:40:50;15.50;90.90
15717;DHT22;7960;50.908;4.204;2023-05-16T10:43:24;15.50;90.20
15717;DHT22;7960;50.908;4.204;2023-05-16T10:45:56;15.70;90.30
15717;DHT22;7960;50.908;4.204;2023-05-16T10:48:32;15.80;88.50
15717;DHT22;7960;50.908;4.204;2023-05-16T10:50:59;15.90;87.20
15717;DHT22;7960;50.908;4.204;2023-05-16T10:53:32;15.80;88.20
15717;DHT22;7960;50.908;4.204;2023-05-16T10:56:09;15.90;90.20
15717;DHT22;7960;50.908;4.204;2023-05-16T10:58:41;15.80;90.30
15717;DHT22;7960;50.908;4.204;2023-05-16T11:01:20;15.80;90.90
15717;DHT22;7960;50.908;4.204;2023-05-16T11:04:09;15.90;90.40
15717;DHT22;7960;50.908;4.204;2023-05-16T11:06:49;15.50;89.50
15717;DHT22;7960;50.908;4.204;2023-05-16T11:09:27;15.80;90.00
15717;DHT22;7960;50.908;4.204;2023-05-16T11:12:03;16.10;90.40
15717;DHT22;7960;50.908;4.204;2023-05-16T11:14:38;16.60;90.10
15717;DHT22;7960;50.908;4.204;2023-05-16T11:17:08;16.60;88.00
15717;DHT22;7960;50.908;4.204;2023-05-16T11:19:40;16.80;86.40
15717;DHT22;7960;50.908;4.204;2023-05-16T11:22:09;16.60;82.30
15717;DHT22;7960;50.908;4.204;2023-05-16T11:24:38;16.20;81.90
15717;DHT22;7960;50.908;4.204;2023-05-16T11:27:05;16.40;85.50
15717;DHT22;7960;50.908;4.204;2023-05-16T11:29:33;16.30;85.40
15717;DHT22;7960;50.908;4.204;2023-05-16T11:32:02;16.40;85.70
15717;DHT22;7960;50.908;4.204;2023-05-16T11:34:29;16.80;83.40
15717;DHT22;7960;50.908;4.204;2023-05-16T11:36:56;17.00;81.70
15717;DHT22;7960;50.908;4.204;2023-05-16T11:39:24;16.90;81.70
15717;DHT22;7960;50.908;4.204;2023-05-16T11:41:53;16.40;81.70
15717;DHT22;7960;50.908;4.204;2023-05-16T11:44:20;16.40;83.90
15717;DHT22;7960;50.908;4.204;2023-05-16T11:46:47;17.00;84.60
15717;DHT22;7960;50.908;4.204;2023-05-16T11:49:16;17.40;82.70
15717;DHT22;7960;50.908;4.204;2023-05-16T11:51:43;17.80;81.50
15717;DHT22;7960;50.908;4.204;2023-05-16T11:54:10;17.50;81.00
15717;DHT22;7960;50.908;4.204;2023-05-16T11:56:38;17.20;81.50
15717;DHT22;7960;50.908;4.204;2023-05-16T11:59:07;17.20;80.80
15717;DHT22;7960;50.908;4.204;2023-05-16T12:01:35;17.20;80.60
15717;DHT22;7960;50.908;4.204;2023-05-16T12:04:07;17.00;77.50
15717;DHT22;7960;50.908;4.204;2023-05-16T12:06:34;17.60;79.40
15717;DHT22;7960;50.908;4.204;2023-05-16T12:09:02;17.40;77.00
15717;DHT22;7960;50.908;4.204;2023-05-16T12:11:36;17.50;78.60
15717;DHT22;7960;50.908;4.204;2023-05-16T12:14:03;17.80;78.50
15717;DHT22;7960;50.908;4.204;2023-05-16T12:16:32;17.90;76.60
15717;DHT22;7960;50.908;4.204;2023-05-16T12:18:59;17.70;74.80
15717;DHT22;7960;50.908;4.204;2023-05-16T12:21:27;17.80;72.60
15717;DHT22;7960;50.908;4.204;2023-05-16T12:23:55;18.00;71.90
15717;DHT22;7960;50.908;4.204;2023-05-16T12:26:26;17.80;73.30
15717;DHT22;7960;50.908;4.204;2023-05-16T12:28:56;18.30;74.30
15717;DHT22;7960;50.908;4.204;2023-05-16T12:31:25;18.20;73.40
15717;DHT22;7960;50.908;4.204;2023-05-16T12:33:53;17.80;71.50
15717;DHT22;7960;50.908;4.204;2023-05-16T12:36:20;18.00;70.50
15717;DHT22;7960;50.908;4.204;2023-05-16T12:38:48;17.80;70.10
15717;DHT22;7960;50.908;4.204;2023-05-16T12:41:20;17.50;69.10
15717;DHT22;7960;50.908;4.204;2023-05-16T12:43:47;17.50;70.50
15717;DHT22;7960;50.908;4.204;2023-05-16T12:46:18;17.00;72.90
15717;DHT22;7960;50.908;4.204;2023-05-16T12:48:45;17.40;73.70
15717;DHT22;7960;50.908;4.204;2023-05-16T12:51:15;17.70;73.20
15717;DHT22;7960;50.908;4.204;2023-05-16T12:53:44;18.30;71.70
15717;DHT22;7960;50.908;4.204;2023-05-16T12:56:11;18.70;67.90
15717;DHT22;7960;50.908;4.204;2023-05-16T12:58:40;18.60;66.70
15717;DHT22;7960;50.908;4.204;2023-05-16T13:01:07;19.00;67.30
15717;DHT22;7960;50.908;4.204;2023-05-16T13:03:34;18.70;67.00
15717;DHT22;7960;50.908;4.204;2023-05-16T13:06:01;18.70;68.40
15717;DHT22;7960;50.908;4.204;2023-05-16T13:08:31;18.00;71.00
15717;DHT22;7960;50.908;4.204;2023-05-16T13:10:59;18.20;71.60
15717;DHT22;7960;50.908;4.204;2023-05-16T13:13:26;18.00;70.60
15717;DHT22;7960;50.908;4.204;2023-05-16T13:15:53;18.70;70.20
15717;DHT22;7960;50.908;4.204;2023-05-16T13:18:20;18.70;69.60
15717;DHT22;7960;50.908;4.204;2023-05-16T13:20:47;19.30;69.70
15717;DHT22;7960;50.908;4.204;2023-05-16T13:23:15;19.10;69.70
15717;DHT22;7960;50.908;4.204;2023-05-16T13:25:43;19.50;67.70
15717;DHT22;7960;50.908;4.204;2023-05-16T13:28:10;18.80;67.70
15717;DHT22;7960;50.908;4.204;2023-05-16T13:30:37;19.00;69.40
15717;DHT22;7960;50.908;4.204;2023-05-16T13:33:04;19.70;68.80
15717;DHT22;7960;50.908;4.204;2023-05-16T13:35:31;19.80;67.00
15717;DHT22;7960;50.908;4.204;2023-05-16T13:37:58;19.50;66.80
15717;DHT22;7960;50.908;4.204;2023-05-16T13:40:25;18.80;67.40
15717;DHT22;7960;50.908;4.204;2023-05-16T13:42:54;18.90;70.20
15717;DHT22;7960;50.908;4.204;2023-05-16T13:45:22;19.30;69.90
15717;DHT22;7960;50.908;4.204;2023-05-16T13:47:49;18.60;69.50
15717;DHT22;7960;50.908;4.204;2023-05-16T13:50:16;18.90;71.10
15717;DHT22;7960;50.908;4.204;2023-05-16T13:52:43;18.20;71.10
15717;DHT22;7960;50.908;4.204;2023-05-16T13:55:12;18.90;73.10
15717;DHT22;7960;50.908;4.204;2023-05-16T13:57:39;19.20;71.10
15717;DHT22;7960;50.908;4.204;2023-05-16T14:00:08;18.60;70.60
15717;DHT22;7960;50.908;4.204;2023-05-16T14:02:37;18.50;71.90
15717;DHT22;7960;50.908;4.204;2023-05-16T14:05:05;18.70;73.00
15717;DHT22;7960;50.908;4.204;2023-05-16T14:07:32;18.50;72.00
15717;DHT22;7960;50.908;4.204;2023-05-16T14:09:59;19.00;72.00
15717;DHT22;7960;50.908;4.204;2023-05-16T14:12:26;19.10;71.70
15717;DHT22;7960;50.908;4.204;2023-05-16T14:14:53;18.90;70.50
15717;DHT22;7960;50.908;4.204;2023-05-16T14:17:22;19.80;70.10
15717;DHT22;7960;50.908;4.204;2023-05-16T14:19:49;19.40;68.20
15717;DHT22;7960;50.908;4.204;2023-05-16T14:22:17;18.90;69.60
15717;DHT22;7960;50.908;4.204;2023-05-16T14:24:44;18.50;69.60
15717;DHT22;7960;50.908;4.204;2023-05-16T14:27:11;18.30;70.60
15717;DHT22;7960;50.908;4.204;2023-05-16T14:29:39;18.00;70.60
15717;DHT22;7960;50.908;4.204;2023-05-16T14:32:06;18.10;71.90
15717;DHT22;7960;50.908;4.204;2023-05-16T14:34:36;18.60;72.00
15717;DHT22;7960;50.908;4.204;2023-05-16T14:37:03;19.20;68.30
15717;DHT22;7960;50.908;4.204;2023-05-16T14:39:30;19.60;66.90
15717;DHT22;7960;50.908;4.204;2023-05-16T14:41:57;19.10;66.90
15717;DHT22;7960;50.908;4.204;2023-05-16T14:44:24;19.10;67.20
15717;DHT22;7960;50.908;4.204;2023-05-16T14:46:51;18.90;68.30
15717;DHT22;7960;50.908;4.204;2023-05-16T14:49:18;19.00;68.20
15717;DHT22;7960;50.908;4.204;2023-05-16T14:51:46;18.40;68.10
15717;DHT22;7960;50.908;4.204;2023-05-16T14:54:15;19.40;69.00
15717;DHT22;7960;50.908;4.204;2023-05-16T14:56:43;19.90;67.70
15717;DHT22;7960;50.908;4.204;2023-05-16T14:59:10;19.20;66.10
15717;DHT22;7960;50.908;4.204;2023-05-16T15:01:38;19.70;66.40
15717;DHT22;7960;50.908;4.204;2023-05-16T15:04:05;19.90;66.60
15717;DHT22;7960;50.908;4.204;2023-05-16T15:06:31;19.80;64.90
15717;DHT22;7960;50.908;4.204;2023-05-16T15:09:01;20.60;65.10
15717;DHT22;7960;50.908;4.204;2023-05-16T15:11:29;20.50;63.40
15717;DHT22;7960;50.908;4.204;2023-05-16T15:13:56;20.00;62.90
15717;DHT22;7960;50.908;4.204;2023-05-16T15:16:23;19.50;64.00
15717;DHT22;7960;50.908;4.204;2023-05-16T15:18:50;18.90;65.50
15717;DHT22;7960;50.908;4.204;2023-05-16T15:21:17;19.10;65.40
15717;DHT22;7960;50.908;4.204;2023-05-16T15:23:44;19.20;65.20
15717;DHT22;7960;50.908;4.204;2023-05-16T15:26:13;19.50;65.40
15717;DHT22;7960;50.908;4.204;2023-05-16T15:28:40;20.00;65.40
15717;DHT22;7960;50.908;4.204;2023-05-16T15:31:07;20.10;64.40
15717;DHT22;7960;50.908;4.204;2023-05-16T15:33:33;21.00;66.10
15717;DHT22;7960;50.908;4.204;2023-05-16T15:36:00;21.30;62.10
15717;DHT22;7960;50.908;4.204;2023-05-16T15:38:28;21.50;60.80
15717;DHT22;7960;50.908;4.204;2023-05-16T15:40:57;21.00;59.50
15717;DHT22;7960;50.908;4.204;2023-05-16T15:43:25;21.10;61.90
15717;DHT22;7960;50.908;4.204;2023-05-16T15:45:52;21.20;63.90
15717;DHT22;7960;50.908;4.204;2023-05-16T15:48:19;20.30;64.40
15717;DHT22;7960;50.908;4.204;2023-05-16T15:50:46;20.40;65.60
15717;DHT22;7960;50.908;4.204;2023-05-16T15:53:13;20.60;65.90
15717;DHT22;7960;50.908;4.204;2023-05-16T15:55:40;20.50;65.60
15717;DHT22;7960;50.908;4.204;2023-05-16T15:58:07;21.40;64.70